This is the latest recevied weather packets stored in our database for station/object KJ4AJP. If no packets are shown the sender has not sent any weather packets the latest 10 day(s).
| Time | Temp. | Humidity | Pressure | Rain* | Wind** | Luminosity | Snow |
|---|---|---|---|---|---|---|---|
| 1777415758 | 22.78° C | 90% | 1010.9 hPa | 0 mm | - | 1 W/m² | - |
| 1777415454 | 22.78° C | 91% | 1011 hPa | 0 mm | - | 2 W/m² | - |
| 1777415149 | 22.78° C | 93% | 1010.8 hPa | 0 mm | - | 0 W/m² | - |
| 1777414844 | 22.78° C | 92% | 1010.3 hPa | 0 mm | - | 0 W/m² | - |
| 1777414539 | 22.78° C | 92% | 1011 hPa | 0 mm | - | 1 W/m² | - |
| 1777414239 | 22.78° C | 92% | 1008.8 hPa | 0 mm | - | 3 W/m² | - |
| 1777413934 | 22.22° C | 92% | 1006.7 hPa | 1.78 mm | - | 4 W/m² | - |
| 1777413629 | 22.78° C | 92% | 1008.4 hPa | 3.56 mm | - | 4 W/m² | - |
| 1777413326 | 22.78° C | 91% | 1009.9 hPa | 3.05 mm | - | 4 W/m² | - |
| 1777413022 | 23.33° C | 89% | 1011.4 hPa | 1.27 mm | - | 4 W/m² | - |
| 1777412722 | 23.33° C | 88% | 1012.4 hPa | 1.27 mm | - | 4 W/m² | - |
| 1777412420 | 23.33° C | 88% | 1012.5 hPa | 1.78 mm | - | 4 W/m² | - |
| 1777412119 | 23.33° C | 87% | 1012.1 hPa | 1.78 mm | - | 4 W/m² | - |
| 1777411815 | 23.33° C | 87% | 1011.6 hPa | 0 mm | - | 4 W/m² | - |
| 1777411514 | 23.89° C | 86% | 1011.4 hPa | 0 mm | - | 5 W/m² | - |
| 1777411209 | 23.89° C | 85% | 1011.3 hPa | 0 mm | - | 7 W/m² | - |
| 1777410903 | 23.89° C | 83% | 1011.4 hPa | 0 mm | - | 8 W/m² | - |
| 1777410603 | 24.44° C | 82% | 1011.8 hPa | 0 mm | - | 9 W/m² | - |
| 1777410303 | 24.44° C | 81% | 1012.2 hPa | 0 mm | - | 10 W/m² | - |
| 1777409997 | 24.44° C | 81% | 1012.4 hPa | 0 mm | - | 13 W/m² | - |
| 1777409693 | 24.44° C | 80% | 1012.2 hPa | 0 mm | - | 16 W/m² | - |
| 1777409389 | 25° C | 79% | 1012.1 hPa | 0 mm | - | 19 W/m² | - |
| 1777409085 | 25° C | 79% | 1011.8 hPa | 0 mm | - | 19 W/m² | - |
| 1777408781 | 25° C | 77% | 1012 hPa | 0 mm | - | 20 W/m² | - |
| 1777408477 | 25° C | 76% | 1012 hPa | 0 mm | - | 17 W/m² | - |
* Rain latest hour (hover to see other rain measurements)
** Current wind speed in m/s (hover to see current wind gust speed)